Time;durP1;ratioP1;P1;durP2;ratioP2;P2;SDS_P1;SDS_P2;PMS_P1;PMS_P2;Temp;Humidity;BMP_temperature;BMP_pressure;BME280_temperature;BME280_humidity;BME280_pressure;Samples;Min_cycle;Max_cycle;Signal;HPM_P1;HPM_P2
2022/05/03 00:00:40;;;;;;;11.90;10.70;;;12.60;87.50;;;;;;4991429;28;20812;-52
2022/05/03 00:03:14;;;;;;;17.17;11.00;;;13.20;87.80;;;;;;4991657;28;20452;-52
2022/05/03 00:05:51;;;;;;;14.00;10.13;;;13.10;87.20;;;;;;4991426;28;21007;-51
2022/05/03 00:08:24;;;;;;;10.53;9.40;;;13.00;87.00;;;;;;4991376;28;20457;-52
2022/05/03 00:11:00;;;;;;;11.23;9.40;;;13.10;86.80;;;;;;4991519;28;20457;-51
2022/05/03 00:13:34;;;;;;;10.70;9.70;;;13.10;85.90;;;;;;4991359;28;20435;-52
2022/05/03 00:16:00;;;;;;;9.83;8.83;;;13.00;85.30;;;;;;4990096;28;20444;-52
2022/05/03 00:18:28;;;;;;;9.90;9.00;;;13.50;85.20;;;;;;4990864;28;20485;-51
2022/05/03 00:20:55;;;;;;;15.43;8.90;;;13.20;83.90;;;;;;4991172;28;20434;-52
2022/05/03 00:23:22;;;;;;;9.67;8.77;;;13.00;83.60;;;;;;4989900;28;20508;-52
2022/05/03 00:25:51;;;;;;;14.10;8.80;;;13.10;83.40;;;;;;4991174;28;20989;-52
2022/05/03 00:28:19;;;;;;;11.43;7.80;;;13.20;83.00;;;;;;4991094;28;20457;-52
2022/05/03 00:30:48;;;;;;;11.30;7.83;;;13.00;82.60;;;;;;4990906;28;20500;-52
2022/05/03 00:33:16;;;;;;;15.07;7.90;;;13.00;82.40;;;;;;4991105;28;20805;-52
2022/05/03 00:35:43;;;;;;;10.80;7.43;;;13.60;82.70;;;;;;4990936;28;20438;-52
2022/05/03 00:38:10;;;;;;;9.90;8.87;;;13.40;82.30;;;;;;4990922;28;20452;-52
2022/05/03 00:40:44;;;;;;;8.73;7.80;;;13.20;82.00;;;;;;4990780;28;20924;-52
2022/05/03 00:43:20;;;;;;;12.27;7.97;;;12.90;81.30;;;;;;4989676;28;20439;-52
2022/05/03 00:45:55;;;;;;;15.70;8.23;;;13.00;81.60;;;;;;4990828;28;20468;-52
2022/05/03 00:48:34;;;;;;;9.00;8.13;;;13.10;81.80;;;;;;4990770;28;20456;-51
2022/05/03 00:51:08;;;;;;;15.40;9.10;;;13.70;82.60;;;;;;4990750;28;20845;-52
2022/05/03 00:53:44;;;;;;;16.40;9.80;;;13.30;82.40;;;;;;4990744;28;20440;-52
2022/05/03 00:56:29;;;;;;;12.67;9.17;;;13.00;82.10;;;;;;4991183;28;20445;-52
2022/05/03 00:59:01;;;;;;;10.33;8.40;;;13.10;82.30;;;;;;4989125;28;20471;-51
2022/05/03 01:01:39;;;;;;;9.77;8.87;;;13.20;82.70;;;;;;4990557;28;20432;-52
2022/05/03 01:04:18;;;;;;;12.30;8.23;;;13.10;82.90;;;;;;4990736;28;20810;-52
2022/05/03 01:06:54;;;;;;;9.67;8.77;;;13.20;83.30;;;;;;4990510;28;21009;-51
2022/05/03 01:09:29;;;;;;;9.70;8.80;;;12.80;83.20;;;;;;4990384;28;20461;-52
2022/05/03 01:12:08;;;;;;;13.67;9.47;;;12.40;83.00;;;;;;4989227;28;20442;-52
2022/05/03 01:14:48;;;;;;;11.43;10.00;;;12.90;83.70;;;;;;4990801;28;20423;-52
2022/05/03 01:17:23;;;;;;;9.90;8.90;;;12.20;83.60;;;;;;4990462;28;20425;-52
2022/05/03 01:20:02;;;;;;;11.57;9.20;;;13.00;84.80;;;;;;4989972;28;20469;-52
2022/05/03 01:22:56;;;;;;;13.33;8.63;;;12.70;84.70;;;;;;4990360;28;20438;-52
2022/05/03 01:25:53;;;;;;;11.37;8.33;;;12.70;84.80;;;;;;4988670;28;20513;-52
2022/05/03 01:28:29;;;;;;;14.70;9.80;;;12.80;85.20;;;;;;4990242;28;20457;-52
2022/05/03 01:31:03;;;;;;;13.83;10.17;;;12.60;85.30;;;;;;4988860;28;21021;-53
2022/05/03 01:33:32;;;;;;;13.83;9.53;;;12.90;85.60;;;;;;4990173;28;20467;-52
2022/05/03 01:36:01;;;;;;;9.77;8.77;;;12.70;85.40;;;;;;4990029;28;20430;-52
2022/05/03 01:38:49;;;;;;;9.70;8.67;;;12.60;85.50;;;;;;4990171;28;20872;-52
2022/05/03 01:41:29;;;;;;;9.77;8.87;;;12.90;86.80;;;;;;4990022;28;20420;-52
2022/05/03 01:44:10;;;;;;;10.57;9.50;;;12.60;85.70;;;;;;4989695;28;20471;-52
2022/05/03 01:46:39;;;;;;;9.80;8.43;;;12.80;86.20;;;;;;4989819;28;20564;-52
2022/05/03 01:52:06;;;;;;;11.80;9.17;;;12.30;85.30;;;;;;4990182;28;20450;-52
2022/05/03 01:54:51;;;;;;;9.83;8.83;;;11.90;85.60;;;;;;4990090;28;20414;-52
2022/05/03 01:57:24;;;;;;;10.80;8.60;;;12.50;86.80;;;;;;4989878;28;20764;-52
2022/05/03 02:00:03;;;;;;;11.30;8.93;;;11.50;86.20;;;;;;4989595;28;20507;-51
2022/05/03 02:02:54;;;;;;;14.43;9.70;;;12.10;87.40;;;;;;4989613;28;20922;-51
2022/05/03 02:05:37;;;;;;;11.80;10.60;;;12.00;87.60;;;;;;4989810;28;20501;-52
2022/05/03 02:08:05;;;;;;;11.70;9.43;;;12.00;87.70;;;;;;4989650;28;20486;-52
2022/05/03 02:10:57;;;;;;;10.80;9.70;;;11.80;87.60;;;;;;4989881;28;20443;-52
2022/05/03 02:16:31;;;;;;;12.70;9.70;;;11.90;87.80;;;;;;4988252;28;20460;-52
2022/05/03 02:19:09;;;;;;;10.83;9.73;;;11.90;88.00;;;;;;4989112;28;20473;-52
2022/05/03 02:21:46;;;;;;;10.40;9.40;;;12.30;88.30;;;;;;4989495;28;20491;-51
2022/05/03 02:24:28;;;;;;;9.87;8.43;;;12.10;88.00;;;;;;4989500;28;20941;-52
2022/05/03 02:27:03;;;;;;;11.23;9.13;;;11.90;88.20;;;;;;4989317;28;20523;-52
2022/05/03 02:29:36;;;;;;;11.97;9.77;;;12.10;88.30;;;;;;4989180;28;20454;-52
2022/05/03 02:32:05;;;;;;;16.40;7.87;;;11.40;87.40;;;;;;4989847;28;20445;-52
2022/05/03 02:34:39;;;;;;;13.07;8.90;;;11.60;87.50;;;;;;4989323;28;20863;-52
2022/05/03 02:37:14;;;;;;;10.23;9.23;;;11.80;88.00;;;;;;4989381;28;20420;-52
2022/05/03 02:39:50;;;;;;;9.70;8.43;;;12.10;88.30;;;;;;4988941;28;20507;-52
2022/05/03 02:42:17;;;;;;;10.40;8.33;;;11.70;88.20;;;;;;4989226;28;20898;-52
2022/05/03 02:44:44;;;;;;;11.57;9.37;;;11.70;88.00;;;;;;4989147;28;20438;-52
2022/05/03 02:47:24;;;;;;;12.20;9.40;;;11.40;88.10;;;;;;4987803;28;21025;-51
2022/05/03 02:50:07;;;;;;;9.60;8.63;;;11.70;88.70;;;;;;4988877;28;20466;-52
2022/05/03 02:52:42;;;;;;;13.47;8.73;;;11.50;88.70;;;;;;4989267;28;20422;-52
2022/05/03 02:55:19;;;;;;;10.97;9.60;;;11.80;89.00;;;;;;4989038;28;20429;-52
2022/05/03 02:57:53;;;;;;;13.60;9.63;;;11.60;89.10;;;;;;4991057;28;20522;-52
2022/05/03 03:03:25;;;;;;;12.10;9.50;;;12.00;90.00;;;;;;4992365;28;20432;-52
2022/05/03 03:05:59;;;;;;;10.50;9.40;;;12.00;90.10;;;;;;4992496;28;20781;-52
2022/05/03 03:08:29;;;;;;;10.20;8.93;;;11.50;90.00;;;;;;4992160;28;20460;-52
2022/05/03 03:11:03;;;;;;;10.37;9.33;;;11.30;89.60;;;;;;4992729;28;20841;-51
2022/05/03 03:13:44;;;;;;;10.80;9.17;;;11.30;90.00;;;;;;4992352;28;20476;-52
2022/05/03 03:16:14;;;;;;;10.60;9.20;;;11.60;90.20;;;;;;4992172;28;20436;-52
2022/05/03 03:18:43;;;;;;;14.90;9.37;;;11.30;90.00;;;;;;4991845;28;20480;-52
2022/05/03 03:21:13;;;;;;;11.80;9.47;;;11.10;90.10;;;;;;4990849;28;20457;-52
2022/05/03 03:23:41;;;;;;;11.83;8.90;;;11.50;90.30;;;;;;4992128;28;20444;-52
2022/05/03 03:26:10;;;;;;;10.13;9.03;;;10.60;89.80;;;;;;4992051;28;20447;-51
2022/05/03 03:28:37;;;;;;;15.53;11.20;;;11.40;90.40;;;;;;4991679;28;20462;-52
2022/05/03 03:31:06;;;;;;;12.90;9.57;;;11.40;90.50;;;;;;4991920;28;20476;-52
2022/05/03 03:33:35;;;;;;;10.70;9.00;;;11.30;90.60;;;;;;4991881;28;20438;-52
2022/05/03 03:36:04;;;;;;;11.53;9.00;;;11.70;90.80;;;;;;4991716;28;20473;-52
2022/05/03 03:38:39;;;;;;;9.60;8.60;;;11.60;90.70;;;;;;4991601;28;20457;-52
2022/05/03 03:41:06;;;;;;;9.80;8.60;;;11.40;90.50;;;;;;4992123;28;20436;-52
2022/05/03 03:43:32;;;;;;;13.80;8.90;;;11.00;90.50;;;;;;4991643;28;20441;-52
2022/05/03 03:45:59;;;;;;;14.80;9.23;;;11.40;90.50;;;;;;4991593;28;20446;-52
2022/05/03 03:48:26;;;;;;;8.70;7.80;;;11.40;90.70;;;;;;4990035;28;20479;-51
2022/05/03 03:50:54;;;;;;;13.80;9.90;;;11.30;90.50;;;;;;4991767;28;20429;-52
2022/05/03 03:53:21;;;;;;;11.60;9.90;;;10.80;90.50;;;;;;4991785;28;20836;-52
2022/05/03 03:55:50;;;;;;;9.83;8.83;;;10.90;90.50;;;;;;4991533;28;20435;-52
2022/05/03 03:58:18;;;;;;;14.00;8.73;;;11.20;90.60;;;;;;4991448;28;20458;-52
2022/05/03 04:00:45;;;;;;;10.10;7.93;;;11.50;90.70;;;;;;4991200;28;20445;-52
2022/05/03 04:03:12;;;;;;;11.70;8.83;;;11.30;90.60;;;;;;4991360;28;20496;-51
2022/05/03 04:05:39;;;;;;;8.63;7.83;;;11.30;90.60;;;;;;4991423;28;20443;-52
2022/05/03 04:08:06;;;;;;;13.20;9.23;;;11.40;90.70;;;;;;4990671;28;20492;-52
2022/05/03 04:10:33;;;;;;;10.20;7.90;;;11.40;90.60;;;;;;4991267;28;20456;-52
2022/05/03 04:13:01;;;;;;;11.30;9.63;;;11.40;90.80;;;;;;4991141;28;20451;-52
2022/05/03 04:15:28;;;;;;;20.83;9.97;;;11.50;90.80;;;;;;4991235;28;20441;-52
2022/05/03 04:17:57;;;;;;;12.30;9.10;;;11.20;90.60;;;;;;4991336;28;20470;-53
2022/05/03 04:20:24;;;;;;;11.23;9.10;;;11.40;90.80;;;;;;4990938;28;20795;-52
2022/05/03 04:22:51;;;;;;;12.17;9.93;;;11.60;90.80;;;;;;4991152;28;20476;-52
2022/05/03 04:25:17;;;;;;;15.40;9.47;;;11.60;90.80;;;;;;4991349;28;20509;-52
2022/05/03 04:27:44;;;;;;;17.23;10.17;;;11.40;90.50;;;;;;4990814;28;20482;-52
2022/05/03 04:30:13;;;;;;;10.00;8.47;;;11.90;91.00;;;;;;4990948;28;20437;-52
2022/05/03 04:32:40;;;;;;;14.73;9.33;;;11.90;90.90;;;;;;4991242;28;20816;-52
2022/05/03 04:35:07;;;;;;;16.60;9.70;;;12.30;91.10;;;;;;4991094;28;20742;-52
2022/05/03 04:37:34;;;;;;;15.40;9.80;;;11.90;90.40;;;;;;4991524;28;21016;-52
2022/05/03 04:40:00;;;;;;;10.17;9.03;;;11.90;90.70;;;;;;4990821;28;20447;-52
2022/05/03 04:42:27;;;;;;;16.87;9.93;;;12.00;90.60;;;;;;4990757;28;20447;-52
2022/05/03 04:44:54;;;;;;;15.80;9.77;;;12.20;90.50;;;;;;4990952;28;20434;-53
2022/05/03 04:47:22;;;;;;;14.93;11.90;;;12.00;90.30;;;;;;4990538;28;20488;-52
2022/05/03 04:49:49;;;;;;;14.07;12.17;;;12.10;90.30;;;;;;4990447;28;20466;-53
2022/05/03 04:52:15;;;;;;;13.90;11.90;;;12.00;89.50;;;;;;4990398;28;20442;-51
2022/05/03 04:54:42;;;;;;;16.90;11.23;;;12.20;90.10;;;;;;4990711;28;20454;-51
2022/05/03 04:57:09;;;;;;;16.70;10.57;;;12.00;89.40;;;;;;4990821;28;20474;-53
2022/05/03 04:59:37;;;;;;;9.93;8.73;;;12.00;90.00;;;;;;4990248;28;20449;-51
2022/05/03 05:02:04;;;;;;;11.43;8.80;;;12.10;88.80;;;;;;4990541;28;20442;-51
2022/05/03 05:04:32;;;;;;;9.57;7.90;;;11.90;89.30;;;;;;4990572;28;20923;-52
2022/05/03 05:06:59;;;;;;;10.53;7.13;;;12.00;88.80;;;;;;4990749;28;20484;-52
2022/05/03 05:09:25;;;;;;;10.53;7.50;;;11.90;88.20;;;;;;4990330;28;20465;-52
2022/05/03 05:11:52;;;;;;;10.63;7.10;;;14.10;90.00;;;;;;4990375;28;20813;-52
2022/05/03 05:14:20;;;;;;;11.93;6.87;;;12.10;86.90;;;;;;4990058;28;20536;-52
2022/05/03 05:16:48;;;;;;;9.20;7.33;;;12.00;86.90;;;;;;4990220;28;20468;-52
2022/05/03 05:19:14;;;;;;;9.77;6.87;;;12.20;87.10;;;;;;4988522;28;20799;-52
2022/05/03 05:21:42;;;;;;;6.73;6.00;;;12.30;86.80;;;;;;4989903;28;20444;-52
2022/05/03 05:24:11;;;;;;;18.67;6.70;;;12.60;86.50;;;;;;4990178;28;20439;-52
2022/05/03 05:26:38;;;;;;;8.67;6.60;;;12.30;86.30;;;;;;4988480;28;20742;-52
2022/05/03 05:29:05;;;;;;;10.23;7.27;;;12.40;85.70;;;;;;4989371;28;20562;-52
2022/05/03 05:31:32;;;;;;;8.97;6.77;;;12.70;85.70;;;;;;4989701;28;20437;-52
2022/05/03 05:33:58;;;;;;;7.00;6.30;;;12.60;85.10;;;;;;4989816;28;20441;-52
2022/05/03 05:36:25;;;;;;;8.40;5.90;;;12.40;83.30;;;;;;4989690;28;20440;-51
2022/05/03 05:38:53;;;;;;;11.00;6.80;;;12.80;83.50;;;;;;4989405;28;20973;-52
2022/05/03 05:41:20;;;;;;;10.40;7.13;;;13.20;83.90;;;;;;4988063;28;20528;-53
2022/05/03 05:43:47;;;;;;;8.43;6.20;;;12.80;82.70;;;;;;4989832;28;20453;-53
2022/05/03 05:46:14;;;;;;;7.43;5.77;;;13.30;82.30;;;;;;4989211;28;20471;-52
2022/05/03 05:48:41;;;;;;;9.47;5.13;;;13.10;79.80;;;;;;4989040;28;20489;-52
2022/05/03 05:51:07;;;;;;;10.47;5.07;;;13.00;80.40;;;;;;4988954;28;20443;-52
2022/05/03 05:53:33;;;;;;;8.30;5.00;;;13.00;80.20;;;;;;4989432;28;20441;-53
2022/05/03 05:56:02;;;;;;;5.27;3.70;;;13.30;79.70;;;;;;4989753;28;20435;-52
2022/05/03 05:58:28;;;;;;;8.23;4.07;;;13.30;78.00;;;;;;4988701;28;20215;-52
2022/05/03 06:00:56;;;;;;;5.93;4.53;;;13.20;77.30;;;;;;4989309;28;20516;-52
2022/05/03 06:03:23;;;;;;;6.33;3.77;;;12.80;76.20;;;;;;4989429;28;20503;-51
2022/05/03 06:05:51;;;;;;;7.37;4.53;;;13.70;75.70;;;;;;4987948;28;20460;-52
2022/05/03 06:08:17;;;;;;;11.80;4.77;;;13.60;76.20;;;;;;4988107;28;20480;-52
2022/05/03 06:10:44;;;;;;;8.23;4.73;;;13.80;76.30;;;;;;4989070;28;20432;-51
2022/05/03 06:13:15;;;;;;;9.33;4.67;;;13.00;75.40;;;;;;4988024;28;20455;-52
2022/05/03 06:15:41;;;;;;;9.63;4.53;;;13.70;75.40;;;;;;4989728;28;20628;-52
2022/05/03 06:18:08;;;;;;;6.60;4.07;;;13.60;75.60;;;;;;4989188;28;20473;-53
2022/05/03 06:20:36;;;;;;;5.30;3.87;;;13.60;74.70;;;;;;4989127;28;20792;-52
2022/05/03 06:23:03;;;;;;;12.90;3.80;;;14.10;75.10;;;;;;4989314;28;20790;-52
2022/05/03 06:25:30;;;;;;;6.40;4.10;;;13.90;74.30;;;;;;4989147;28;20478;-52
2022/05/03 06:27:56;;;;;;;13.50;9.97;;;13.70;73.50;;;;;;4988960;28;20858;-52
2022/05/03 06:30:24;;;;;;;7.10;3.43;;;13.90;74.10;;;;;;4988662;28;20439;-53
2022/05/03 06:32:51;;;;;;;11.30;4.50;;;12.90;72.20;;;;;;4988134;28;20464;-52
2022/05/03 06:35:19;;;;;;;5.80;3.43;;;13.10;72.40;;;;;;4988905;28;20464;-51
2022/05/03 06:37:46;;;;;;;10.87;4.40;;;13.60;72.30;;;;;;4988666;28;20865;-53
2022/05/03 06:40:12;;;;;;;10.07;3.27;;;13.70;73.30;;;;;;4988391;28;20427;-52
2022/05/03 06:42:40;;;;;;;10.60;4.20;;;14.30;73.30;;;;;;4988176;28;20535;-52
2022/05/03 06:45:09;;;;;;;5.90;3.73;;;13.80;72.80;;;;;;4988652;28;20905;-52
2022/05/03 06:47:38;;;;;;;9.67;4.27;;;13.80;71.60;;;;;;4988625;28;20552;-52
2022/05/03 06:50:06;;;;;;;9.07;4.53;;;13.90;72.50;;;;;;4988357;28;20975;-52
2022/05/03 06:52:33;;;;;;;4.33;2.70;;;14.20;71.40;;;;;;4987230;28;20464;-52
2022/05/03 06:55:00;;;;;;;4.07;2.60;;;13.90;70.30;;;;;;4988596;28;20970;-53
2022/05/03 06:57:28;;;;;;;4.70;3.00;;;14.00;69.00;;;;;;4988356;28;20440;-52
2022/05/03 06:59:55;;;;;;;11.10;3.00;;;14.20;69.60;;;;;;4988328;28;20422;-52
2022/05/03 07:02:21;;;;;;;7.03;2.90;;;14.70;70.20;;;;;;4987338;28;20510;-53
2022/05/03 07:04:49;;;;;;;9.23;3.70;;;14.10;69.40;;;;;;4988486;28;20498;-52
2022/05/03 07:07:16;;;;;;;7.23;3.20;;;14.80;70.20;;;;;;4988373;28;20557;-52
2022/05/03 07:09:43;;;;;;;9.90;2.93;;;14.20;70.20;;;;;;4988091;28;20456;-51
2022/05/03 07:12:10;;;;;;;8.90;3.97;;;14.50;71.20;;;;;;4988429;28;20794;-51
2022/05/03 07:14:37;;;;;;;6.70;3.73;;;14.90;70.80;;;;;;4988445;28;20445;-52
2022/05/03 07:17:05;;;;;;;6.10;3.90;;;14.20;70.00;;;;;;4988043;28;20449;-52
2022/05/03 07:25:01;;;;;;;7.40;3.80;;;14.20;69.00;;;;;;4987307;28;20449;-51
2022/05/03 07:27:28;;;;;;;6.23;3.90;;;14.60;68.50;;;;;;4988008;28;20434;-52
2022/05/03 07:29:55;;;;;;;6.53;3.63;;;14.70;69.30;;;;;;4986099;28;20863;-52
2022/05/03 07:32:22;;;;;;;4.23;2.17;;;14.40;68.40;;;;;;4987832;28;20437;-52
2022/05/03 07:34:48;;;;;;;4.03;2.13;;;14.70;68.00;;;;;;4988451;28;20831;-51
2022/05/03 07:37:16;;;;;;;8.13;3.00;;;15.00;67.00;;;;;;4988014;28;20784;-53
2022/05/03 07:39:43;;;;;;;4.23;3.00;;;14.50;66.50;;;;;;4986434;28;20468;-52
2022/05/03 07:42:10;;;;;;;6.47;3.63;;;14.80;66.70;;;;;;4987768;28;20448;-52
2022/05/03 07:44:36;;;;;;;5.13;2.37;;;15.00;66.80;;;;;;4991608;28;20789;-52
2022/05/03 07:47:03;;;;;;;3.83;2.43;;;14.80;65.80;;;;;;4991175;28;20441;-52
2022/05/03 07:49:30;;;;;;;3.77;2.13;;;14.90;65.60;;;;;;4990796;28;20977;-52
2022/05/03 07:51:57;;;;;;;4.80;2.40;;;15.10;65.80;;;;;;4989938;28;20449;-52
2022/05/03 07:54:25;;;;;;;3.20;2.10;;;14.90;65.00;;;;;;4991320;28;20438;-53
2022/05/03 07:56:52;;;;;;;3.40;2.70;;;15.30;64.40;;;;;;4989976;28;20446;-52
2022/05/03 07:59:21;;;;;;;3.40;2.97;;;14.80;64.20;;;;;;4990879;28;20460;-52
2022/05/03 08:01:47;;;;;;;5.97;2.20;;;14.90;64.10;;;;;;4991080;28;20949;-53
2022/05/03 08:04:14;;;;;;;6.90;2.33;;;14.90;63.90;;;;;;4991330;28;20442;-52
2022/05/03 08:06:41;;;;;;;9.23;4.57;;;15.00;64.40;;;;;;4990971;28;20442;-53
2022/05/03 08:09:07;;;;;;;4.50;2.50;;;14.60;63.80;;;;;;4990828;28;20485;-53
2022/05/03 08:11:35;;;;;;;8.13;3.40;;;15.40;64.70;;;;;;4990863;28;20448;-53
2022/05/03 08:14:02;;;;;;;5.73;3.00;;;15.00;64.30;;;;;;4991062;28;20444;-52
2022/05/03 08:16:30;;;;;;;4.60;2.60;;;14.70;63.50;;;;;;4989315;28;20461;-52
2022/05/03 08:18:57;;;;;;;5.80;3.50;;;15.50;64.20;;;;;;4990417;28;20482;-51
2022/05/03 08:21:24;;;;;;;5.73;3.60;;;14.80;63.30;;;;;;4990873;28;20441;-53
2022/05/03 08:23:51;;;;;;;7.20;3.63;;;14.70;63.10;;;;;;4990385;28;20938;-52
2022/05/03 08:26:18;;;;;;;5.20;3.00;;;15.20;63.70;;;;;;4990729;28;20435;-51
2022/05/03 08:28:47;;;;;;;14.40;3.73;;;15.60;64.10;;;;;;4990385;28;20495;-52
2022/05/03 08:31:13;;;;;;;3.80;2.87;;;15.50;64.60;;;;;;4990529;28;20528;-53
2022/05/03 08:33:40;;;;;;;6.90;2.90;;;15.10;64.00;;;;;;4990770;28;20882;-53
2022/05/03 08:36:07;;;;;;;2.90;2.60;;;15.30;64.50;;;;;;4990790;28;20543;-52
2022/05/03 08:44:04;;;;;;;6.23;2.90;;;15.20;64.00;;;;;;4990786;28;20451;-54
2022/05/03 08:46:33;;;;;;;8.90;3.57;;;15.40;64.00;;;;;;4990626;28;20441;-53
2022/05/03 08:49:02;;;;;;;4.43;3.20;;;15.30;63.40;;;;;;4990263;28;20482;-52
2022/05/03 08:51:31;;;;;;;5.20;3.60;;;15.40;63.00;;;;;;4971118;28;20457;-53
2022/05/03 08:53:59;;;;;;;7.50;3.50;;;15.20;62.80;;;;;;4970800;28;20450;-53
2022/05/03 08:56:26;;;;;;;5.13;3.00;;;15.30;62.70;;;;;;4971115;28;20447;-52
2022/05/03 08:58:53;;;;;;;2.77;2.40;;;15.70;61.70;;;;;;4970830;28;20454;-52
2022/05/03 09:01:21;;;;;;;8.83;3.50;;;15.60;61.20;;;;;;4970906;28;20457;-51
2022/05/03 09:03:48;;;;;;;5.63;3.00;;;15.80;61.50;;;;;;4971015;28;20886;-52
2022/05/03 09:06:15;;;;;;;5.00;3.23;;;15.40;61.40;;;;;;4971304;28;20445;-54
2022/05/03 09:08:41;;;;;;;4.43;2.80;;;15.10;61.20;;;;;;4970477;28;20482;-53
2022/05/03 09:11:14;;;;;;;4.30;3.30;;;15.50;61.30;;;;;;4970992;28;20454;-51
2022/05/03 09:13:42;;;;;;;8.47;2.87;;;15.10;61.00;;;;;;4970803;28;20545;-54
2022/05/03 09:16:14;;;;;;;5.63;2.70;;;15.60;61.70;;;;;;4971320;28;20434;-52
2022/05/03 09:18:42;;;;;;;6.33;2.70;;;16.00;61.70;;;;;;4989022;28;20478;-51
2022/05/03 09:24:08;;;;;;;3.90;3.27;;;15.90;61.30;;;;;;4990298;28;20444;-53
2022/05/03 09:26:35;;;;;;;9.40;3.67;;;15.80;61.80;;;;;;4990505;28;20516;-51
2022/05/03 09:29:05;;;;;;;6.43;2.97;;;16.00;62.00;;;;;;4989906;28;20488;-53
2022/05/03 09:31:33;;;;;;;8.63;3.47;;;15.50;61.30;;;;;;4990264;28;20497;-52
2022/05/03 09:34:19;;;;;;;4.30;2.70;;;15.70;60.90;;;;;;4990105;28;20450;-52
2022/05/03 09:36:48;;;;;;;9.90;3.40;;;15.50;60.00;;;;;;4990504;28;20472;-52
2022/05/03 09:39:25;;;;;;;4.20;2.33;;;15.80;60.40;;;;;;4990099;28;20464;-53
2022/05/03 09:42:07;;;;;;;3.40;2.50;;;15.90;59.80;;;;;;4988893;28;20821;-53
2022/05/03 09:44:36;;;;;;;3.97;2.53;;;15.90;59.60;;;;;;4987827;28;20463;-52
2022/05/03 09:47:08;;;;;;;4.10;2.67;;;15.70;59.00;;;;;;4989994;28;20457;-51
2022/05/03 09:49:38;;;;;;;4.40;2.83;;;14.40;58.00;;;;;;4989522;28;20507;-52
2022/05/03 09:52:06;;;;;;;7.80;2.63;;;15.50;58.40;;;;;;4989779;28;20469;-52
2022/05/03 09:54:46;;;;;;;5.37;2.83;;;15.80;58.80;;;;;;4989554;28;20480;-52
2022/05/03 09:57:21;;;;;;;3.57;2.53;;;16.20;58.80;;;;;;4988227;28;20520;-51
2022/05/03 09:59:48;;;;;;;4.13;2.80;;;16.20;58.70;;;;;;4989032;28;20949;-53
2022/05/03 10:02:17;;;;;;;5.20;2.90;;;15.80;57.90;;;;;;4989373;28;20455;-52
2022/05/03 10:04:46;;;;;;;3.43;2.60;;;16.50;58.20;;;;;;4988259;28;20544;-53
2022/05/03 10:07:13;;;;;;;4.50;2.50;;;16.20;58.00;;;;;;4988290;28;20440;-53
2022/05/03 10:09:41;;;;;;;5.53;2.00;;;16.40;57.20;;;;;;4988581;28;20226;-52
2022/05/03 10:12:11;;;;;;;4.47;1.90;;;16.20;56.00;;;;;;4988740;28;20443;-52
2022/05/03 10:14:38;;;;;;;4.60;2.00;;;16.30;55.80;;;;;;4988797;28;20863;-51
2022/05/03 10:22:40;;;;;;;4.10;1.77;;;16.40;55.20;;;;;;5051464;28;20440;-45
2022/05/03 10:25:08;;;;;;;5.10;1.90;;;16.50;55.10;;;;;;5051241;28;20454;-46
2022/05/03 10:27:55;;;;;;;4.70;2.30;;;16.00;54.40;;;;;;5051489;28;20436;-46
2022/05/03 10:30:23;;;;;;;6.07;1.73;;;16.70;54.60;;;;;;5051710;28;20220;-46
2022/05/03 10:33:35;;;;;;;3.77;2.23;;;16.80;54.60;;;;;;5052261;28;20968;-45
2022/05/03 10:36:42;;;;;;;4.00;2.33;;;16.80;54.60;;;;;;5052245;28;20434;-46
2022/05/03 10:39:22;;;;;;;5.00;2.37;;;16.80;54.90;;;;;;5051183;28;20462;-45
2022/05/03 10:42:11;;;;;;;4.90;2.20;;;16.50;55.40;;;;;;5051134;28;20443;-44
2022/05/03 10:44:43;;;;;;;5.75;2.28;;;16.80;55.90;;;;;;5050816;28;20931;-45
2022/05/03 10:47:10;;;;;;;3.58;2.20;;;16.30;55.50;;;;;;5051460;28;20420;-47
2022/05/03 10:50:15;;;;;;;6.33;2.23;;;16.60;55.00;;;;;;5050739;28;20271;-45
2022/05/03 10:52:45;;;;;;;4.80;1.60;;;16.20;54.00;;;;;;5038746;28;20853;-44
2022/05/03 10:55:12;;;;;;;3.87;1.50;;;16.60;53.80;;;;;;5051264;28;20449;-44
2022/05/03 10:58:27;;;;;;;5.63;1.40;;;16.80;53.60;;;;;;5051106;28;20436;-47
2022/05/03 11:01:09;;;;;;;2.23;1.40;;;17.00;52.80;;;;;;4970390;28;20441;-46
2022/05/03 11:03:37;;;;;;;3.20;1.50;;;16.80;53.20;;;;;;4970841;28;20840;-44
2022/05/03 11:06:47;;;;;;;2.60;1.60;;;16.30;52.10;;;;;;4970513;28;20520;-46
2022/05/03 11:09:24;;;;;;;3.97;1.60;;;16.60;52.30;;;;;;4962084;28;20495;-45
2022/05/03 11:12:07;;;;;;;3.83;1.33;;;16.70;52.60;;;;;;4970510;28;21120;-45
2022/05/03 11:14:49;;;;;;;7.30;1.37;;;16.80;52.90;;;;;;4971505;28;20489;-45
2022/05/03 11:17:16;;;;;;;3.60;1.50;;;16.50;52.70;;;;;;4970552;28;20451;-46
2022/05/03 11:19:51;;;;;;;4.53;1.80;;;16.40;52.90;;;;;;4973555;28;21035;-45
2022/05/03 11:22:20;;;;;;;4.73;1.60;;;16.80;53.10;;;;;;4973899;28;20479;-46
2022/05/03 11:24:50;;;;;;;2.60;1.53;;;17.10;53.40;;;;;;4974268;28;21011;-44
2022/05/03 11:27:17;;;;;;;4.53;1.90;;;16.80;53.50;;;;;;4974548;28;20438;-46
2022/05/03 11:29:47;;;;;;;2.10;1.43;;;16.90;53.90;;;;;;4973963;28;20522;-45
2022/05/03 11:32:15;;;;;;;7.03;2.00;;;16.40;53.50;;;;;;5027998;28;20445;-46
2022/05/03 11:34:43;;;;;;;3.93;1.60;;;16.90;54.20;;;;;;5054949;28;20496;-45
2022/05/03 11:37:10;;;;;;;6.50;1.97;;;16.50;53.90;;;;;;5055411;28;20496;-45
2022/05/03 11:39:37;;;;;;;2.83;1.77;;;16.70;54.10;;;;;;5054567;28;20458;-45
2022/05/03 11:42:09;;;;;;;1.93;1.50;;;16.80;53.80;;;;;;5054772;28;20444;-45
2022/05/03 11:44:36;;;;;;;2.67;1.70;;;17.00;53.80;;;;;;5055124;28;20448;-45
2022/05/03 11:47:04;;;;;;;2.23;1.67;;;16.70;53.80;;;;;;5055327;28;20436;-45
2022/05/03 11:49:32;;;;;;;6.50;1.65;;;16.90;54.00;;;;;;5053624;28;20912;-46
2022/05/03 11:57:36;;;;;;;3.50;1.30;;;17.00;53.20;;;;;;5035541;28;20445;-46
2022/05/03 12:00:05;;;;;;;2.00;1.20;;;17.00;53.30;;;;;;5034435;28;20453;-46
2022/05/03 12:02:36;;;;;;;2.87;1.20;;;17.20;53.70;;;;;;5034508;28;20413;-46
2022/05/03 12:05:15;;;;;;;3.30;1.80;;;17.60;53.90;;;;;;5033245;28;20587;-46
2022/05/03 12:07:45;;;;;;;1.80;1.30;;;17.70;53.60;;;;;;5034108;28;20265;-45
2022/05/03 12:10:20;;;;;;;1.40;0.87;;;17.80;53.70;;;;;;5033835;28;20480;-44
2022/05/03 12:13:03;;;;;;;1.70;1.20;;;17.50;53.30;;;;;;5047406;28;20982;-45
2022/05/03 12:15:30;;;;;;;5.90;1.43;;;17.30;53.30;;;;;;5054787;28;20441;-46
2022/05/03 12:17:59;;;;;;;2.97;1.90;;;17.40;53.60;;;;;;5053877;28;20451;-46
2022/05/03 12:20:28;;;;;;;5.97;2.40;;;17.40;53.80;;;;;;5035383;28;20969;-46
2022/05/03 12:23:17;;;;;;;1.23;0.93;;;17.60;54.00;;;;;;5054080;28;20441;-46
2022/05/03 12:25:45;;;;;;;2.60;0.90;;;17.80;54.10;;;;;;5034205;28;20441;-45
2022/05/03 12:28:12;;;;;;;1.30;1.00;;;17.10;53.30;;;;;;5033292;28;20442;-47
2022/05/03 12:30:39;;;;;;;3.30;0.90;;;17.40;53.60;;;;;;5033893;28;20490;-45
2022/05/03 12:33:08;;;;;;;3.77;1.20;;;17.60;53.80;;;;;;5034523;28;20537;-45
2022/05/03 12:35:36;;;;;;;1.27;0.80;;;17.40;53.90;;;;;;5034117;28;20439;-45
2022/05/03 12:38:11;;;;;;;1.63;1.10;;;17.60;53.70;;;;;;5033892;28;21002;-46
2022/05/03 12:40:49;;;;;;;3.00;1.07;;;17.70;54.20;;;;;;5033498;28;20436;-47
2022/05/03 12:43:20;;;;;;;4.00;1.10;;;17.50;54.00;;;;;;5033306;28;20451;-46
2022/05/03 12:46:06;;;;;;;3.20;1.33;;;17.40;53.70;;;;;;5048272;28;20455;-45
2022/05/03 12:48:36;;;;;;;1.77;1.17;;;17.20;53.20;;;;;;5053488;28;20909;-46
2022/05/03 12:51:04;;;;;;;4.03;1.30;;;17.50;53.50;;;;;;5053764;28;20476;-46
2022/05/03 12:53:33;;;;;;;1.43;0.93;;;17.60;53.20;;;;;;5053304;28;20438;-46
2022/05/03 12:58:21;;;;;;;1.40;0.80;;;17.80;53.20;;;;;;5053340;28;20812;-45
2022/05/03 12:58:48;;;;;;;1.80;1.00;;;17.50;53.00;;;;;;5052889;28;20549;-46
2022/05/03 13:01:17;;;;;;;2.10;0.90;;;18.00;53.10;;;;;;5053524;28;20434;-46
2022/05/03 13:03:47;;;;;;;1.60;0.90;;;18.40;53.30;;;;;;5053315;28;20865;-46
2022/05/03 13:06:14;;;;;;;1.70;1.40;;;18.30;53.00;;;;;;5053782;28;20517;-47
2022/05/03 13:08:40;;;;;;;6.50;1.73;;;18.60;53.20;;;;;;5053287;28;20446;-45
2022/05/03 13:11:07;;;;;;;2.40;1.60;;;18.60;53.20;;;;;;5062468;28;20484;-46
2022/05/03 13:13:33;;;;;;;3.07;1.60;;;18.30;52.50;;;;;;5072881;28;20444;-47
2022/05/03 13:16:01;;;;;;;1.37;1.03;;;18.80;53.10;;;;;;5072154;28;20492;-46
2022/05/03 13:18:28;;;;;;;2.30;1.07;;;18.40;52.10;;;;;;5060354;28;20473;-45
2022/05/03 13:20:55;;;;;;;1.30;0.80;;;18.80;52.50;;;;;;5052456;28;20318;-46
2022/05/03 13:23:21;;;;;;;2.97;1.20;;;18.80;52.40;;;;;;5052426;28;20210;-45
2022/05/03 13:25:48;;;;;;;3.20;1.20;;;18.80;52.60;;;;;;5052357;28;20446;-44
2022/05/03 13:28:15;;;;;;;4.23;1.30;;;19.00;52.50;;;;;;5052469;28;20453;-46
2022/05/03 13:30:43;;;;;;;1.93;1.20;;;18.90;51.80;;;;;;5051077;28;20464;-46
2022/05/03 13:33:11;;;;;;;2.27;1.23;;;19.20;51.50;;;;;;5052073;28;20432;-44
2022/05/03 13:41:06;;;;;;;2.60;2.00;;;19.50;51.60;;;;;;5051630;28;20421;-46